FC2ブログ

ディスパッチャーの航空気象情報

運航管理者が航空に関する気象情報サイトを集めました。 フライト前に天気チェックに。ディスパッチャーになりたい人に。
上記の広告は1ヶ月以上更新のないブログに表示されています。
新しい記事を書く事で広告が消せます。
低気圧や前線が遠ざかり、日本付近は、ふたたび冬型の気圧配置に。
北陸から北の日本海側は、それほど強くはないが、冷たい空気が流れ込んで、雪が降りやすい。
風も強まるため、強風や高波に注意を。
そのほかの各地は、太平洋側を中心に晴れて、また空気が乾燥しそう。
日中の最高気温は、28日より低くなる所が多く、日差しが戻っても体調管理に注意を。


by 天気のツボ


昨日は全国的に雨などんよりした天気でした。
今日は雨になるところは少ないですが、気温は昨日より低そうです。

RJCC 282100Z 32005KT 9999 FEW015 SCT040 M09/M14 Q1007
RJAA 282100Z 14002KT 9999 FEW030 02/02 Q1011 NOSIG RMK 1CU030 A2985
RJBB 282100Z 25012KT 9999 FEW030 08/00 Q1018 NOSIG
ROAH 282100Z 06005KT 7000 FEW015 BKN100 17/14 Q1019

気温だけ見ると北からかなり違いますね。

天気・気象学のホームページをチェック
コメント
この記事へのコメント
面白いですね!
しんのすけさん、はじめまして。
面白いサイトを発見してしまいました!
ディスパッチャーのブログ、みたことありません。
これからも愉しみにしていますね!
2010/01/30(土) 02:57:03 | URL | 竜子 #-[ 編集]
Re: 面白いですね!
はじめまして。
訪問ありがとうございます。
またきてください。
2010/02/01(月) 11:14:26 | URL | しんのすけ #-[ 編集]
コメントを投稿する
URL:
Comment:
Pass:
秘密: 管理者にだけ表示を許可する
 
トラックバック
この記事のトラックバックURL
http://wxdisp.blog113.fc2.com/tb.php/7-3c0cd76e
この記事にトラックバックする(FC2ブログユーザー)
この記事へのトラックバック
上記広告は1ヶ月以上更新のないブログに表示されています。新しい記事を書くことで広告を消せます。